Time;durP1;ratioP1;P1;durP2;ratioP2;P2;SDS_P1;SDS_P2;PMS_P1;PMS_P2;Temp;Humidity;BMP_temperature;BMP_pressure;BME280_temperature;BME280_humidity;BME280_pressure;Samples;Min_cycle;Max_cycle;Signal;HPM_P1;HPM_P2
2024/04/25 00:01:37;;;;;;;58.95;5.65;;;;;;;;;;5345663;26;20530;-69
2024/04/25 00:04:05;;;;;;;60.05;6.05;;;;;;;;;;5346929;26;20256;-69
2024/04/25 00:06:34;;;;;;;58.55;5.22;;;;;;;;;;5346925;26;20237;-69
2024/04/25 00:09:03;;;;;;;62.05;6.10;;;;;;;;;;5346730;26;20244;-69
2024/04/25 00:11:32;;;;;;;58.85;5.53;;;;;;;;;;5346691;26;20283;-69
2024/04/25 00:14:01;;;;;;;59.10;5.35;;;;;;;;;;5347444;26;20726;-69
2024/04/25 00:16:33;;;;;;;59.00;5.80;;;;;;;;;;5346621;26;20307;-69
2024/04/25 00:19:01;;;;;;;60.40;6.07;;;;;;;;;;5346706;26;20245;-69
2024/04/25 00:21:30;;;;;;;59.17;5.72;;;;;;;;;;5346611;26;20287;-69
2024/04/25 00:24:00;;;;;;;59.67;5.45;;;;;;;;;;5347059;26;20288;-69
2024/04/25 00:26:28;;;;;;;58.72;5.25;;;;;;;;;;5346621;26;20237;-69
2024/04/25 00:28:57;;;;;;;62.42;6.30;;;;;;;;;;5346522;26;20242;-69
2024/04/25 00:31:26;;;;;;;58.05;4.95;;;;;;;;;;5346523;26;20362;-69
2024/04/25 00:33:58;;;;;;;60.47;5.63;;;;;;;;;;5346891;26;20264;-69
2024/04/25 00:36:27;;;;;;;58.78;5.80;;;;;;;;;;5346418;26;20822;-69
2024/04/25 00:38:56;;;;;;;57.90;4.83;;;;;;;;;;5346206;26;20253;-68
2024/04/25 00:41:25;;;;;;;59.45;6.47;;;;;;;;;;5346730;26;20852;-69
2024/04/25 00:43:54;;;;;;;59.08;5.32;;;;;;;;;;5346278;26;20280;-69
2024/04/25 00:46:23;;;;;;;59.63;5.38;;;;;;;;;;5346033;26;20250;-68
2024/04/25 00:48:52;;;;;;;59.00;5.72;;;;;;;;;;5345879;26;20264;-69
2024/04/25 00:51:24;;;;;;;59.88;5.95;;;;;;;;;;5346432;26;20359;-69
2024/04/25 00:53:53;;;;;;;61.50;5.35;;;;;;;;;;5346757;26;20241;-69
2024/04/25 00:56:23;;;;;;;61.50;6.18;;;;;;;;;;5345945;26;20245;-68
2024/04/25 00:58:52;;;;;;;58.97;5.68;;;;;;;;;;5346036;26;20241;-69
2024/04/25 01:01:21;;;;;;;58.60;5.50;;;;;;;;;;5347029;26;20238;-69
2024/04/25 01:03:50;;;;;;;60.05;5.20;;;;;;;;;;5332335;26;20614;-69
2024/04/25 01:06:21;;;;;;;58.63;5.35;;;;;;;;;;5346726;26;20346;-69
2024/04/25 01:08:52;;;;;;;57.67;5.00;;;;;;;;;;5331924;26;20704;-69
2024/04/25 01:11:21;;;;;;;63.07;5.70;;;;;;;;;;5345890;26;20324;-69
2024/04/25 01:13:50;;;;;;;60.55;6.10;;;;;;;;;;5331236;26;20475;-69
2024/04/25 01:16:19;;;;;;;59.53;5.45;;;;;;;;;;5346041;26;20681;-69
2024/04/25 01:18:48;;;;;;;58.10;5.20;;;;;;;;;;5345616;26;20253;-69
2024/04/25 01:21:16;;;;;;;59.92;5.97;;;;;;;;;;5345882;26;20253;-69
2024/04/25 01:23:46;;;;;;;59.70;5.28;;;;;;;;;;5346205;26;20241;-69
2024/04/25 01:26:18;;;;;;;59.22;5.63;;;;;;;;;;5346203;26;20295;-69
2024/04/25 01:28:47;;;;;;;59.03;5.50;;;;;;;;;;5345745;26;20241;-69
2024/04/25 01:31:16;;;;;;;59.03;5.47;;;;;;;;;;5345833;26;20742;-69
2024/04/25 01:33:46;;;;;;;60.17;5.75;;;;;;;;;;5345478;26;21018;-69
2024/04/25 01:36:14;;;;;;;59.97;5.30;;;;;;;;;;5345579;26;20736;-69
2024/04/25 01:38:43;;;;;;;60.70;5.78;;;;;;;;;;5345190;26;20257;-69
2024/04/25 01:41:12;;;;;;;59.67;5.90;;;;;;;;;;5345152;26;20253;-69
2024/04/25 01:43:43;;;;;;;60.35;5.80;;;;;;;;;;5345529;26;20346;-69
2024/04/25 01:46:12;;;;;;;58.95;5.30;;;;;;;;;;5345424;26;20261;-69
2024/04/25 01:48:45;;;;;;;58.97;5.70;;;;;;;;;;5345331;26;20260;-69
2024/04/25 01:51:13;;;;;;;61.05;5.38;;;;;;;;;;5345783;26;20297;-69
2024/04/25 01:53:42;;;;;;;58.15;5.55;;;;;;;;;;5345596;26;20341;-69
2024/04/25 01:56:11;;;;;;;59.58;6.05;;;;;;;;;;5345392;26;20692;-69
2024/04/25 01:58:40;;;;;;;58.83;5.53;;;;;;;;;;5345358;26;20374;-69
2024/04/25 02:01:11;;;;;;;59.67;5.78;;;;;;;;;;5345581;26;20339;-69
2024/04/25 02:03:42;;;;;;;60.63;5.38;;;;;;;;;;5345652;26;20633;-69
2024/04/25 02:06:11;;;;;;;58.80;5.75;;;;;;;;;;5345688;26;20786;-69
2024/04/25 02:08:39;;;;;;;59.75;5.90;;;;;;;;;;5344999;26;20245;-69
2024/04/25 02:11:09;;;;;;;57.70;4.80;;;;;;;;;;5345302;26;20334;-69
2024/04/25 02:13:38;;;;;;;58.28;5.10;;;;;;;;;;5345451;26;20350;-69
2024/04/25 02:16:07;;;;;;;59.30;5.63;;;;;;;;;;5345404;26;20621;-69
2024/04/25 02:18:38;;;;;;;58.67;5.32;;;;;;;;;;5344755;26;20257;-69
2024/04/25 02:26:36;;;;;;;59.13;5.28;;;;;;;;;;5350476;26;20338;-69
2024/04/25 02:29:05;;;;;;;61.90;5.43;;;;;;;;;;5347875;26;20338;-69
2024/04/25 02:31:37;;;;;;;61.90;5.80;;;;;;;;;;5348221;26;20342;-69
2024/04/25 02:34:08;;;;;;;58.17;5.03;;;;;;;;;;5348488;26;20740;-69
2024/04/25 02:36:39;;;;;;;58.42;5.13;;;;;;;;;;5348031;26;20358;-69
2024/04/25 02:39:09;;;;;;;60.67;6.03;;;;;;;;;;5348511;26;20245;-69
2024/04/25 02:41:38;;;;;;;59.20;5.70;;;;;;;;;;5348276;26;20245;-69
2024/04/25 02:44:06;;;;;;;57.67;5.13;;;;;;;;;;5347983;26;20252;-69
2024/04/25 02:46:33;;;;;;;57.75;4.88;;;;;;;;;;5347938;26;20257;-69
2024/04/25 02:49:01;;;;;;;59.50;5.23;;;;;;;;;;5348256;26;20241;-70
2024/04/25 02:51:31;;;;;;;62.17;5.20;;;;;;;;;;5348003;26;20854;-69
2024/04/25 02:54:00;;;;;;;58.50;5.30;;;;;;;;;;5347811;26;20603;-69
2024/04/25 02:56:26;;;;;;;58.00;5.53;;;;;;;;;;5347891;26;20783;-69
2024/04/25 02:58:55;;;;;;;58.30;4.90;;;;;;;;;;5333602;26;21015;-69
2024/04/25 03:01:21;;;;;;;57.73;5.27;;;;;;;;;;5347814;26;20591;-69
2024/04/25 03:03:50;;;;;;;58.67;5.20;;;;;;;;;;5347846;26;20487;-69
2024/04/25 03:06:16;;;;;;;59.88;5.80;;;;;;;;;;5348048;26;20280;-69
2024/04/25 03:08:47;;;;;;;58.00;4.75;;;;;;;;;;5347522;26;20788;-69
2024/04/25 03:11:13;;;;;;;59.97;5.53;;;;;;;;;;5347821;26;20733;-69
2024/04/25 03:13:42;;;;;;;57.80;4.50;;;;;;;;;;5347435;26;21054;-69
2024/04/25 03:16:11;;;;;;;62.38;5.55;;;;;;;;;;5347248;26;20257;-69
2024/04/25 03:18:37;;;;;;;57.27;5.00;;;;;;;;;;5347512;26;20355;-69
2024/04/25 03:21:06;;;;;;;57.53;5.05;;;;;;;;;;5347719;26;20479;-68
2024/04/25 03:23:32;;;;;;;58.58;5.20;;;;;;;;;;5347533;26;20350;-69
2024/04/25 03:26:04;;;;;;;58.28;5.35;;;;;;;;;;5347558;26;20703;-69
2024/04/25 03:28:30;;;;;;;57.40;4.53;;;;;;;;;;5347851;26;20366;-69
2024/04/25 03:30:59;;;;;;;58.00;4.85;;;;;;;;;;5347736;26;20907;-69
2024/04/25 03:33:25;;;;;;;63.40;4.35;;;;;;;;;;5348188;26;20241;-69
2024/04/25 03:35:54;;;;;;;57.47;4.40;;;;;;;;;;5347122;26;20244;-69
2024/04/25 03:38:23;;;;;;;58.13;5.45;;;;;;;;;;5347110;26;20257;-69
2024/04/25 03:40:53;;;;;;;64.83;5.60;;;;;;;;;;5347363;26;20667;-69
2024/04/25 03:43:24;;;;;;;59.03;4.50;;;;;;;;;;5347314;26;20483;-69
2024/04/25 03:45:53;;;;;;;57.55;4.55;;;;;;;;;;5346999;26;20362;-69
2024/04/25 03:48:22;;;;;;;59.30;5.10;;;;;;;;;;5347109;26;20245;-69
2024/04/25 03:50:50;;;;;;;57.50;4.20;;;;;;;;;;5347025;26;20483;-69
2024/04/25 03:53:19;;;;;;;57.42;4.63;;;;;;;;;;5347708;26;20351;-69
2024/04/25 03:55:48;;;;;;;57.38;4.80;;;;;;;;;;5347333;26;20659;-69
2024/04/25 03:58:17;;;;;;;58.00;5.35;;;;;;;;;;5347797;26;20342;-69
2024/04/25 04:00:48;;;;;;;57.97;4.60;;;;;;;;;;5347684;26;20241;-69
2024/04/25 04:03:17;;;;;;;58.10;5.17;;;;;;;;;;5348167;26;20257;-69
2024/04/25 04:05:45;;;;;;;57.88;5.07;;;;;;;;;;5347474;26;20483;-69
2024/04/25 04:08:14;;;;;;;60.10;4.63;;;;;;;;;;5348142;26;20245;-69
2024/04/25 04:10:43;;;;;;;57.97;5.05;;;;;;;;;;5347462;26;20244;-69
2024/04/25 04:13:12;;;;;;;57.10;4.32;;;;;;;;;;5347486;26;20236;-69
2024/04/25 04:15:41;;;;;;;60.05;4.85;;;;;;;;;;5347324;26;20289;-69
2024/04/25 04:18:12;;;;;;;57.78;4.57;;;;;;;;;;5346928;26;20694;-69
2024/04/25 04:20:44;;;;;;;57.72;4.95;;;;;;;;;;5347172;26;20249;-69
2024/04/25 04:23:13;;;;;;;57.70;5.13;;;;;;;;;;5347892;26;20237;-69
2024/04/25 04:25:41;;;;;;;57.80;4.82;;;;;;;;;;5347367;26;20281;-69
2024/04/25 04:28:10;;;;;;;57.50;4.70;;;;;;;;;;5346843;26;20241;-69
2024/04/25 04:30:39;;;;;;;57.53;4.93;;;;;;;;;;5347366;26;20353;-69
2024/04/25 04:33:07;;;;;;;56.97;4.20;;;;;;;;;;5347339;26;20249;-69
2024/04/25 04:35:39;;;;;;;58.33;4.50;;;;;;;;;;5347017;26;20483;-69
2024/04/25 04:38:08;;;;;;;57.40;4.30;;;;;;;;;;5347102;26;20292;-69
2024/04/25 04:40:36;;;;;;;57.55;4.05;;;;;;;;;;5346858;26;20598;-69
2024/04/25 04:43:05;;;;;;;57.77;4.90;;;;;;;;;;5347352;26;20749;-70
2024/04/25 04:45:34;;;;;;;57.47;4.43;;;;;;;;;;5347149;26;21022;-70
2024/04/25 04:48:03;;;;;;;58.57;4.63;;;;;;;;;;5345835;26;20237;-70
2024/04/25 04:50:31;;;;;;;59.80;5.23;;;;;;;;;;5347118;26;20471;-70
2024/04/25 04:53:03;;;;;;;58.00;4.50;;;;;;;;;;5347063;26;20854;-70
2024/04/25 04:55:32;;;;;;;57.30;4.30;;;;;;;;;;5346877;26;20532;-70
2024/04/25 04:58:00;;;;;;;58.30;4.83;;;;;;;;;;5332818;26;20607;-70
2024/04/25 05:00:29;;;;;;;57.77;4.93;;;;;;;;;;5347505;26;20873;-70
2024/04/25 05:02:58;;;;;;;58.07;3.90;;;;;;;;;;5347171;26;20472;-70
2024/04/25 05:05:28;;;;;;;62.60;5.00;;;;;;;;;;5347923;26;20484;-70
2024/04/25 05:07:58;;;;;;;58.93;4.90;;;;;;;;;;5346949;26;20487;-70
2024/04/25 05:10:30;;;;;;;57.77;4.50;;;;;;;;;;5346867;26;20472;-70
2024/04/25 05:12:58;;;;;;;62.70;4.83;;;;;;;;;;5346995;26;20821;-70
2024/04/25 05:15:27;;;;;;;57.40;4.17;;;;;;;;;;5347022;26;20530;-70
2024/04/25 05:17:56;;;;;;;58.30;4.67;;;;;;;;;;5346702;26;20636;-70
2024/04/25 05:20:25;;;;;;;57.60;4.33;;;;;;;;;;5347108;26;20553;-70
2024/04/25 05:22:53;;;;;;;57.60;4.60;;;;;;;;;;5347170;26;20480;-70
2024/04/25 05:25:22;;;;;;;57.60;4.60;;;;;;;;;;5347215;26;21105;-70
2024/04/25 05:27:54;;;;;;;58.30;4.67;;;;;;;;;;5346461;26;20476;-70
2024/04/25 05:30:23;;;;;;;59.67;4.40;;;;;;;;;;5346543;26;20483;-70
2024/04/25 05:32:52;;;;;;;58.70;4.33;;;;;;;;;;5345773;26;20475;-70
2024/04/25 05:35:21;;;;;;;61.17;5.10;;;;;;;;;;5346049;26;20531;-71
2024/04/25 05:37:50;;;;;;;58.80;5.40;;;;;;;;;;5345771;26;20472;-70
2024/04/25 05:40:19;;;;;;;59.03;4.90;;;;;;;;;;5345806;26;20819;-70
2024/04/25 05:42:47;;;;;;;60.63;6.90;;;;;;;;;;5346451;26;20476;-70
2024/04/25 05:45:19;;;;;;;61.73;5.50;;;;;;;;;;5345825;26;20480;-70
2024/04/25 05:47:48;;;;;;;56.90;4.70;;;;;;;;;;5345455;26;20539;-70
2024/04/25 05:50:16;;;;;;;57.90;4.90;;;;;;;;;;5337417;26;21134;-70
2024/04/25 05:52:45;;;;;;;59.27;5.17;;;;;;;;;;5346187;26;20532;-70
2024/04/25 05:55:14;;;;;;;58.77;5.37;;;;;;;;;;5346258;26;20599;-70
2024/04/25 05:57:44;;;;;;;59.10;5.30;;;;;;;;;;5345914;26;20484;-70
2024/04/25 06:00:13;;;;;;;57.57;4.87;;;;;;;;;;5345995;26;21094;-70
2024/04/25 06:02:44;;;;;;;58.80;5.80;;;;;;;;;;5346958;26;20516;-70
2024/04/25 06:05:13;;;;;;;58.90;4.80;;;;;;;;;;5346809;26;20472;-70
2024/04/25 06:07:42;;;;;;;58.37;5.17;;;;;;;;;;5346562;26;20475;-70
2024/04/25 06:10:11;;;;;;;58.27;4.33;;;;;;;;;;5346527;26;20480;-70
2024/04/25 06:12:40;;;;;;;58.07;5.10;;;;;;;;;;5346443;26;20544;-70
2024/04/25 06:15:08;;;;;;;60.17;5.13;;;;;;;;;;5346226;26;20537;-70
2024/04/25 06:17:37;;;;;;;57.90;4.90;;;;;;;;;;5346075;26;20480;-70
2024/04/25 06:20:11;;;;;;;59.10;5.33;;;;;;;;;;5332990;26;20475;-70
2024/04/25 06:22:40;;;;;;;58.80;4.60;;;;;;;;;;5345628;26;20620;-70
2024/04/25 06:25:09;;;;;;;61.90;5.27;;;;;;;;;;5345929;26;20476;-70
2024/04/25 06:27:37;;;;;;;59.83;4.93;;;;;;;;;;5345960;26;20491;-70
2024/04/25 06:30:06;;;;;;;58.73;5.60;;;;;;;;;;5346309;26;20487;-70
2024/04/25 06:32:35;;;;;;;58.73;5.20;;;;;;;;;;5344426;26;20460;-70
2024/04/25 06:35:04;;;;;;;60.17;5.00;;;;;;;;;;5345342;26;20495;-70
2024/04/25 06:37:36;;;;;;;58.57;5.57;;;;;;;;;;5346018;26;20584;-70
2024/04/25 06:40:05;;;;;;;59.00;5.00;;;;;;;;;;5345726;26;20528;-71
2024/04/25 06:42:34;;;;;;;58.80;4.97;;;;;;;;;;5345719;26;20591;-71
2024/04/25 06:45:03;;;;;;;57.63;5.03;;;;;;;;;;5345975;26;20523;-71
2024/04/25 06:47:32;;;;;;;58.47;4.93;;;;;;;;;;5346127;26;20495;-70
2024/04/25 06:50:01;;;;;;;61.83;6.03;;;;;;;;;;5346165;26;20816;-70
2024/04/25 06:52:30;;;;;;;61.80;5.17;;;;;;;;;;5345328;26;20595;-70
2024/04/25 06:55:01;;;;;;;60.10;5.40;;;;;;;;;;5345389;26;20476;-70
2024/04/25 06:57:30;;;;;;;68.93;5.20;;;;;;;;;;5345197;26;20496;-70
2024/04/25 06:59:58;;;;;;;59.20;5.40;;;;;;;;;;5344682;26;20572;-70
2024/04/25 07:02:27;;;;;;;57.80;4.93;;;;;;;;;;5345558;26;20893;-70
2024/04/25 07:04:58;;;;;;;60.17;5.10;;;;;;;;;;5345281;26;20633;-69
2024/04/25 07:07:24;;;;;;;59.23;5.43;;;;;;;;;;5344981;26;20535;-70
2024/04/25 07:09:52;;;;;;;58.50;5.47;;;;;;;;;;5344917;26;20491;-70
2024/04/25 07:12:24;;;;;;;57.80;5.10;;;;;;;;;;5347908;26;20487;-70
2024/04/25 07:14:53;;;;;;;58.17;5.43;;;;;;;;;;5348170;26;20483;-70
2024/04/25 07:17:21;;;;;;;59.57;5.27;;;;;;;;;;5348320;26;20495;-70
2024/04/25 07:19:50;;;;;;;60.90;5.27;;;;;;;;;;5347932;26;20594;-70
2024/04/25 07:22:19;;;;;;;59.20;4.80;;;;;;;;;;5348309;26;20580;-70
2024/04/25 07:24:48;;;;;;;58.77;4.90;;;;;;;;;;5348502;26;20474;-70
2024/04/25 07:27:16;;;;;;;57.90;4.50;;;;;;;;;;5347727;26;20491;-69
2024/04/25 07:29:49;;;;;;;59.13;5.50;;;;;;;;;;5346552;26;20618;-69
2024/04/25 07:32:17;;;;;;;59.40;5.03;;;;;;;;;;5343179;26;20546;-68
2024/04/25 07:34:46;;;;;;;58.97;5.57;;;;;;;;;;5348360;26;20555;-67
2024/04/25 07:37:15;;;;;;;58.57;5.50;;;;;;;;;;5349962;26;20932;-68
2024/04/25 07:39:44;;;;;;;60.37;6.17;;;;;;;;;;5349126;26;20480;-67
2024/04/25 07:42:14;;;;;;;59.47;5.40;;;;;;;;;;5349436;26;20532;-68
2024/04/25 07:44:43;;;;;;;58.60;4.87;;;;;;;;;;5348876;26;20487;-69
2024/04/25 07:47:14;;;;;;;59.60;5.50;;;;;;;;;;5347158;26;20479;-69
2024/04/25 07:49:43;;;;;;;59.70;5.93;;;;;;;;;;5348000;26;20597;-68
2024/04/25 07:52:12;;;;;;;60.63;5.87;;;;;;;;;;5346191;26;20471;-68
2024/04/25 07:54:41;;;;;;;60.67;6.60;;;;;;;;;;5347248;26;20487;-69
2024/04/25 07:57:10;;;;;;;59.67;6.07;;;;;;;;;;5339032;26;20642;-69
2024/04/25 07:59:38;;;;;;;61.03;6.07;;;;;;;;;;5348288;26;20898;-69
2024/04/25 08:02:07;;;;;;;59.60;5.43;;;;;;;;;;5347100;26;20600;-69
2024/04/25 08:04:39;;;;;;;57.90;6.17;;;;;;;;;;5348834;26;20542;-69
2024/04/25 08:07:09;;;;;;;59.93;5.67;;;;;;;;;;5347632;26;20476;-69
2024/04/25 08:09:37;;;;;;;62.50;7.00;;;;;;;;;;5347798;26;20551;-69
2024/04/25 08:12:06;;;;;;;62.27;6.20;;;;;;;;;;5347088;26;20487;-69
2024/04/25 08:14:35;;;;;;;60.83;4.87;;;;;;;;;;5347852;26;20519;-69
2024/04/25 08:17:04;;;;;;;60.07;5.33;;;;;;;;;;5348466;26;20539;-69
2024/04/25 08:19:33;;;;;;;57.90;4.70;;;;;;;;;;5347354;26;20499;-69
2024/04/25 08:22:05;;;;;;;59.27;4.80;;;;;;;;;;5347301;26;20531;-69
2024/04/25 08:24:34;;;;;;;58.87;4.97;;;;;;;;;;5347706;26;20487;-69
2024/04/25 08:27:02;;;;;;;59.83;4.70;;;;;;;;;;5347984;26;20639;-69
2024/04/25 08:29:31;;;;;;;58.37;5.17;;;;;;;;;;5347412;26;21054;-69
2024/04/25 08:32:00;;;;;;;57.77;5.13;;;;;;;;;;5347284;26;20602;-69
2024/04/25 08:34:28;;;;;;;59.13;5.30;;;;;;;;;;5347237;26;20674;-69
2024/04/25 08:36:57;;;;;;;58.70;5.20;;;;;;;;;;5346682;26;20627;-69
2024/04/25 08:39:29;;;;;;;60.00;5.00;;;;;;;;;;5346450;26;20603;-69
2024/04/25 08:41:58;;;;;;;57.43;4.47;;;;;;;;;;5346769;26;20475;-69
2024/04/25 08:44:27;;;;;;;60.90;4.80;;;;;;;;;;5346205;26;20483;-70
2024/04/25 08:46:57;;;;;;;58.37;4.60;;;;;;;;;;5346073;26;20495;-69
2024/04/25 08:49:29;;;;;;;58.30;4.13;;;;;;;;;;5346167;26;20814;-70
2024/04/25 08:51:58;;;;;;;57.10;3.77;;;;;;;;;;5346135;26;20530;-70
2024/04/25 08:54:30;;;;;;;59.87;5.57;;;;;;;;;;5346160;26;20523;-69
2024/04/25 08:57:00;;;;;;;60.20;5.07;;;;;;;;;;5345843;26;20475;-70
2024/04/25 08:59:29;;;;;;;59.07;4.70;;;;;;;;;;5346094;26;20467;-69
2024/04/25 09:01:58;;;;;;;58.87;5.13;;;;;;;;;;5346034;26;20483;-70
2024/04/25 09:04:29;;;;;;;59.90;5.10;;;;;;;;;;5346190;26;20822;-70
2024/04/25 09:06:58;;;;;;;59.73;4.67;;;;;;;;;;5345555;26;20480;-70
2024/04/25 09:09:30;;;;;;;58.70;4.53;;;;;;;;;;5345678;26;20484;-70
2024/04/25 09:11:59;;;;;;;59.63;4.80;;;;;;;;;;5346044;26;20495;-70
2024/04/25 09:14:28;;;;;;;59.47;4.57;;;;;;;;;;5345862;26;20623;-69
2024/04/25 09:16:56;;;;;;;58.43;4.63;;;;;;;;;;5345503;26;20598;-70
2024/04/25 09:19:26;;;;;;;57.00;3.83;;;;;;;;;;5346059;26;20586;-69
2024/04/25 09:21:55;;;;;;;59.30;4.20;;;;;;;;;;5345392;26;21040;-70
2024/04/25 09:24:23;;;;;;;59.93;3.87;;;;;;;;;;5345445;26;20483;-70
2024/04/25 09:26:55;;;;;;;64.43;4.70;;;;;;;;;;5345673;26;20484;-69
2024/04/25 09:29:24;;;;;;;60.07;4.70;;;;;;;;;;5345577;26;20475;-69
2024/04/25 09:31:54;;;;;;;64.23;4.60;;;;;;;;;;5345580;26;20920;-69
2024/04/25 09:34:22;;;;;;;59.97;4.70;;;;;;;;;;5345192;26;20491;-69
2024/04/25 09:36:51;;;;;;;56.73;3.63;;;;;;;;;;5345550;26;20571;-69
2024/04/25 09:39:20;;;;;;;59.50;3.70;;;;;;;;;;5345369;26;20520;-70
2024/04/25 09:41:50;;;;;;;58.10;4.00;;;;;;;;;;5345725;26;20823;-69
2024/04/25 09:44:21;;;;;;;60.77;3.83;;;;;;;;;;5345715;26;20475;-69
2024/04/25 09:46:54;;;;;;;58.97;3.73;;;;;;;;;;5345172;26;20590;-69
2024/04/25 09:49:25;;;;;;;58.87;3.40;;;;;;;;;;5345219;26;20817;-70
2024/04/25 09:51:57;;;;;;;57.70;3.70;;;;;;;;;;5345029;26;20536;-70
2024/04/25 09:54:27;;;;;;;58.60;3.10;;;;;;;;;;5345440;26;20791;-70
2024/04/25 09:56:57;;;;;;;57.80;3.80;;;;;;;;;;5344623;26;20540;-69
2024/04/25 09:59:32;;;;;;;58.90;3.80;;;;;;;;;;5344799;26;21098;-70
2024/04/25 10:02:04;;;;;;;57.73;4.03;;;;;;;;;;5344866;26;20494;-70
2024/04/25 10:04:35;;;;;;;59.90;3.80;;;;;;;;;;5345297;26;20563;-70
2024/04/25 10:07:05;;;;;;;58.00;3.70;;;;;;;;;;5345053;26;20598;-70
2024/04/25 10:09:34;;;;;;;59.43;3.60;;;;;;;;;;5344549;26;21022;-70
2024/04/25 10:12:06;;;;;;;58.80;4.30;;;;;;;;;;5344433;26;20849;-70
2024/04/25 10:14:38;;;;;;;58.13;4.07;;;;;;;;;;5345287;26;20491;-70
2024/04/25 10:17:06;;;;;;;56.70;3.57;;;;;;;;;;5344399;26;20480;-70
2024/04/25 10:19:36;;;;;;;58.13;3.80;;;;;;;;;;5344757;26;20483;-70
2024/04/25 10:22:05;;;;;;;59.90;3.60;;;;;;;;;;5344748;26;20528;-70
2024/04/25 10:24:33;;;;;;;58.37;3.73;;;;;;;;;;5344748;26;20519;-70
2024/04/25 10:27:11;;;;;;;56.00;3.00;;;;;;;;;;5344600;26;20597;-70
2024/04/25 10:29:50;;;;;;;58.10;3.40;;;;;;;;;;5344910;26;20559;-70
2024/04/25 10:32:19;;;;;;;58.00;3.50;;;;;;;;;;5344553;26;20479;-70
2024/04/25 10:34:48;;;;;;;59.00;3.50;;;;;;;;;;5344516;26;20829;-70
2024/04/25 10:37:16;;;;;;;56.57;3.03;;;;;;;;;;5344062;26;20532;-70
2024/04/25 10:39:46;;;;;;;59.77;3.27;;;;;;;;;;5344905;26;20598;-70
2024/04/25 10:42:17;;;;;;;57.47;3.30;;;;;;;;;;5344725;26;20476;-70
2024/04/25 10:44:50;;;;;;;56.77;2.67;;;;;;;;;;5344412;26;20534;-70
2024/04/25 10:47:19;;;;;;;56.80;2.77;;;;;;;;;;5332227;26;20478;-70
2024/04/25 10:49:48;;;;;;;62.23;3.40;;;;;;;;;;5347699;26;20611;-70
2024/04/25 10:52:16;;;;;;;57.00;2.70;;;;;;;;;;5347434;26;20987;-70
2024/04/25 10:54:45;;;;;;;56.63;2.90;;;;;;;;;;5347524;26;20956;-70
2024/04/25 10:57:15;;;;;;;56.87;3.17;;;;;;;;;;5346946;26;21037;-70
2024/04/25 10:59:44;;;;;;;56.50;2.70;;;;;;;;;;5347813;26;20598;-70
2024/04/25 11:02:15;;;;;;;57.20;3.03;;;;;;;;;;5347680;26;20624;-70
2024/04/25 11:04:45;;;;;;;56.20;2.50;;;;;;;;;;5348059;26;20483;-70
2024/04/25 11:07:15;;;;;;;55.80;2.50;;;;;;;;;;5346954;26;20532;-70
2024/04/25 11:09:44;;;;;;;55.97;2.63;;;;;;;;;;5347208;26;21144;-70
2024/04/25 11:12:12;;;;;;;57.10;2.70;;;;;;;;;;5347351;26;20502;-71
2024/04/25 11:14:41;;;;;;;56.77;2.53;;;;;;;;;;5347497;26;20594;-70
2024/04/25 11:17:10;;;;;;;58.30;3.00;;;;;;;;;;5346838;26;20591;-70
2024/04/25 11:19:41;;;;;;;56.20;2.73;;;;;;;;;;5347865;26;20586;-71
2024/04/25 11:22:11;;;;;;;57.23;3.10;;;;;;;;;;5347671;26;20521;-71
2024/04/25 11:24:40;;;;;;;58.10;2.87;;;;;;;;;;5347505;26;20471;-71
2024/04/25 11:27:09;;;;;;;58.07;2.73;;;;;;;;;;5347569;26;20547;-70
2024/04/25 11:29:37;;;;;;;59.47;3.17;;;;;;;;;;5348203;26;20513;-70
2024/04/25 11:32:06;;;;;;;56.70;2.60;;;;;;;;;;5347845;26;20636;-70
2024/04/25 11:34:36;;;;;;;58.80;2.70;;;;;;;;;;5346978;26;20539;-70
2024/04/25 11:37:08;;;;;;;58.00;2.87;;;;;;;;;;5346687;26;20483;-70
2024/04/25 11:39:37;;;;;;;56.57;2.90;;;;;;;;;;5346836;26;20550;-71
2024/04/25 11:42:07;;;;;;;56.60;2.90;;;;;;;;;;5346693;26;20491;-70
2024/04/25 11:44:36;;;;;;;62.00;3.53;;;;;;;;;;5346528;26;20491;-70
2024/04/25 11:47:05;;;;;;;56.87;3.07;;;;;;;;;;5346360;26;20503;-70
2024/04/25 11:49:35;;;;;;;56.40;2.70;;;;;;;;;;5346467;26;20594;-70
2024/04/25 11:52:03;;;;;;;57.07;2.70;;;;;;;;;;5346725;26;21005;-70
2024/04/25 11:54:35;;;;;;;56.87;2.83;;;;;;;;;;5346526;26;20476;-70
2024/04/25 11:57:03;;;;;;;56.23;2.57;;;;;;;;;;5346413;26;20881;-70
2024/04/25 11:59:33;;;;;;;56.43;2.50;;;;;;;;;;5346666;26;20480;-70
2024/04/25 12:02:01;;;;;;;57.03;3.00;;;;;;;;;;5346747;26;20479;-70
2024/04/25 12:04:30;;;;;;;58.57;2.70;;;;;;;;;;5346487;26;20484;-70
2024/04/25 12:06:59;;;;;;;56.03;2.40;;;;;;;;;;5346439;26;20591;-70
2024/04/25 12:09:28;;;;;;;56.97;3.20;;;;;;;;;;5346772;26;20900;-70
2024/04/25 12:11:59;;;;;;;56.43;2.20;;;;;;;;;;5346929;26;20464;-70
2024/04/25 12:14:28;;;;;;;55.93;2.70;;;;;;;;;;5347227;26;20488;-70
2024/04/25 12:16:57;;;;;;;56.10;2.30;;;;;;;;;;5346289;26;20491;-70
2024/04/25 12:19:25;;;;;;;56.20;2.23;;;;;;;;;;5345717;26;21023;-70
2024/04/25 12:21:54;;;;;;;57.03;2.43;;;;;;;;;;5346237;26;20472;-70
2024/04/25 12:24:23;;;;;;;58.30;2.67;;;;;;;;;;5332406;26;20584;-70
2024/04/25 12:26:51;;;;;;;55.97;2.20;;;;;;;;;;5346517;26;20543;-71
2024/04/25 12:29:23;;;;;;;55.90;2.67;;;;;;;;;;5345744;26;20536;-70
2024/04/25 12:31:51;;;;;;;56.47;2.20;;;;;;;;;;5346274;26;20479;-70
2024/04/25 12:34:20;;;;;;;56.27;2.40;;;;;;;;;;5345778;26;20599;-70
2024/04/25 12:36:49;;;;;;;58.60;2.60;;;;;;;;;;5345729;26;20655;-70
2024/04/25 12:39:18;;;;;;;56.60;2.50;;;;;;;;;;5345332;26;20487;-70
2024/04/25 12:41:48;;;;;;;55.77;2.40;;;;;;;;;;5346024;26;20523;-70
2024/04/25 12:44:16;;;;;;;56.53;2.90;;;;;;;;;;5345614;26;20826;-70
2024/04/25 12:46:48;;;;;;;56.50;2.33;;;;;;;;;;5345698;26;20468;-70
2024/04/25 12:49:31;;;;;;;56.67;2.67;;;;;;;;;;5345569;26;20479;-70
2024/04/25 12:52:00;;;;;;;58.60;2.87;;;;;;;;;;5346012;26;20468;-70
2024/04/25 12:54:29;;;;;;;57.00;3.10;;;;;;;;;;5345711;26;20532;-69
2024/04/25 12:56:57;;;;;;;58.23;3.20;;;;;;;;;;5345271;26;20610;-70
2024/04/25 12:59:26;;;;;;;60.20;3.33;;;;;;;;;;5345163;26;20592;-70
2024/04/25 13:01:58;;;;;;;57.20;2.67;;;;;;;;;;5345918;26;20487;-70
2024/04/25 13:04:26;;;;;;;56.77;2.77;;;;;;;;;;5346224;26;20595;-70
2024/04/25 13:06:55;;;;;;;57.37;2.90;;;;;;;;;;5345114;26;20483;-70
2024/04/25 13:09:24;;;;;;;56.73;3.13;;;;;;;;;;5344324;26;20491;-70
2024/04/25 13:11:53;;;;;;;56.07;2.53;;;;;;;;;;5345454;26;21006;-70
2024/04/25 13:14:21;;;;;;;57.00;3.30;;;;;;;;;;5345441;26;20634;-70
2024/04/25 13:16:50;;;;;;;58.80;3.20;;;;;;;;;;5344964;26;20472;-70
2024/04/25 13:19:21;;;;;;;57.00;3.53;;;;;;;;;;5344876;26;20546;-70
2024/04/25 13:21:50;;;;;;;58.50;3.03;;;;;;;;;;5345289;26;20480;-70
2024/04/25 13:24:19;;;;;;;56.70;3.00;;;;;;;;;;5345660;26;20594;-70
2024/04/25 13:26:48;;;;;;;56.37;2.83;;;;;;;;;;5345887;26;20571;-70
2024/04/25 13:29:16;;;;;;;57.73;3.20;;;;;;;;;;5344586;26;20495;-70
2024/04/25 13:31:45;;;;;;;58.50;3.00;;;;;;;;;;5344980;26;20475;-70
2024/04/25 13:34:16;;;;;;;56.77;3.13;;;;;;;;;;5344898;26;20879;-70
2024/04/25 13:36:47;;;;;;;58.33;2.90;;;;;;;;;;5345142;26;20480;-70
2024/04/25 13:39:16;;;;;;;57.47;3.17;;;;;;;;;;5344880;26;20483;-70
2024/04/25 13:41:44;;;;;;;59.37;3.30;;;;;;;;;;5344900;26;20483;-70
2024/04/25 13:44:13;;;;;;;56.10;2.60;;;;;;;;;;5344663;26;20484;-70
2024/04/25 13:46:42;;;;;;;58.27;3.73;;;;;;;;;;5345716;26;20579;-70
2024/04/25 13:49:11;;;;;;;57.30;3.10;;;;;;;;;;5344574;26;20476;-70
2024/04/25 13:51:39;;;;;;;56.40;2.60;;;;;;;;;;5344994;26;21007;-71
2024/04/25 13:54:11;;;;;;;58.20;2.90;;;;;;;;;;5345096;26;20808;-70
2024/04/25 13:56:40;;;;;;;56.57;2.50;;;;;;;;;;5345396;26;20528;-70
2024/04/25 13:59:09;;;;;;;56.17;2.67;;;;;;;;;;5344401;26;20524;-71
2024/04/25 14:01:38;;;;;;;57.90;2.73;;;;;;;;;;5344455;26;20528;-70
2024/04/25 14:04:07;;;;;;;57.07;2.70;;;;;;;;;;5344656;26;20927;-70
2024/04/25 14:06:38;;;;;;;56.37;2.17;;;;;;;;;;5344799;26;20475;-70
2024/04/25 14:09:07;;;;;;;56.60;2.40;;;;;;;;;;5344446;26;20472;-71
2024/04/25 14:11:39;;;;;;;56.40;2.70;;;;;;;;;;5344684;26;20592;-70
2024/04/25 14:14:09;;;;;;;55.97;2.43;;;;;;;;;;5344623;26;20599;-70
2024/04/25 14:16:38;;;;;;;57.60;3.00;;;;;;;;;;5344727;26;20479;-70
2024/04/25 14:19:07;;;;;;;56.87;2.50;;;;;;;;;;5344233;26;20467;-70
2024/04/25 14:21:36;;;;;;;58.10;3.07;;;;;;;;;;5342907;26;20594;-70
2024/04/25 14:24:05;;;;;;;55.90;2.40;;;;;;;;;;5344334;26;20499;-70
2024/04/25 14:29:21;;;;;;;55.70;2.43;;;;;;;;;;5346605;26;20516;-70
2024/04/25 14:31:50;;;;;;;57.57;2.50;;;;;;;;;;5344335;26;20550;-71
2024/04/25 14:34:16;;;;;;;56.07;2.37;;;;;;;;;;5344338;26;20880;-70
2024/04/25 14:36:45;;;;;;;55.93;2.20;;;;;;;;;;5344229;26;20476;-70
2024/04/25 14:39:13;;;;;;;56.87;2.60;;;;;;;;;;5343886;26;20487;-70
2024/04/25 14:41:42;;;;;;;56.53;2.70;;;;;;;;;;5344390;26;20483;-70
2024/04/25 14:44:11;;;;;;;56.13;2.33;;;;;;;;;;5344005;26;20584;-70
2024/04/25 14:46:42;;;;;;;56.33;2.60;;;;;;;;;;5344264;26;20532;-70
2024/04/25 14:49:11;;;;;;;57.53;2.90;;;;;;;;;;5343927;26;20534;-70
2024/04/25 14:51:40;;;;;;;56.30;2.50;;;;;;;;;;5344315;26;20610;-70